Etusivu
METAR-TAF:

METAR-TAF

Lentoasemat :

Portage Glacier, Alaska, Yhdysvallat

Leveyspiiri: 60-47N, Pituuspiiri: 148-50W, korkeus merenpinnasta: 29 m

Tämänhetkinen sää

Tämä raportti tehtiin 32 minuuttia sitten, kello 15.53 UTC
tyyntä
Lämpötila 8°C
Kosteus 93%
Ilmanpaine 1022 hPa
Näkyvyys: 16.1 km
Pilvistä 1400 ft:n korkeudessa

METAR: PATO 191553Z AUTO 00000KT 10SM OVC014 08/07 A3019 RMK AO2 SLP224 T00780067 TSNO

Aika: 08:25 (16:25 UTC)


TAF: puuttuu

Säähavainnot ja -ennusteet yli 4000 lentoasemalta (METAR- ja TAF-raportit).

Käytössä olevat sääasemat on merkitty karttaan keltaisilla ja punaisilla pisteillä.

Aseta hiiri pisteen päälle nähdäksesi sääaseman nimen.

Klikkaa sitten nähdäksesi säähavainnot ja -ennusteet.

Kartan vaihtaminen: klikkaa mustalla rastilla varustettuja vihreitä pisteitä, niin voit zoomata sisään; viivalla varustettua vihreää pistettä, niin voit zoomata ulos tai vihreitä nuolia, niin pääset viereisille kartoille.


METAR-TAF: